createdAt,value
2017-11-12T00:00:18.223Z,4.5
2017-11-12T00:02:17.904Z,5.9
2017-11-12T00:04:18.587Z,7.6
2017-11-12T00:06:17.257Z,6.1
2017-11-12T00:08:17.947Z,3.3
2017-11-12T00:10:17.599Z,7.8
2017-11-12T00:12:18.277Z,6.6
2017-11-12T00:14:17.925Z,6.2
2017-11-12T00:16:17.606Z,6.6
2017-11-12T00:18:18.271Z,4.7
2017-11-12T00:20:17.906Z,8.9
2017-11-12T00:22:18.550Z,6.6
2017-11-12T00:24:18.250Z,3.9
2017-11-12T00:26:17.906Z,6.3
2017-11-12T00:28:18.559Z,6
2017-11-12T00:30:18.250Z,4
2017-11-12T00:32:17.913Z,7.2
2017-11-12T00:34:18.616Z,4.8
2017-11-12T00:36:17.266Z,7.2
2017-11-12T00:38:17.959Z,5.3
2017-11-12T00:40:17.605Z,3.2
2017-11-12T00:42:18.252Z,4.9
2017-11-12T00:44:17.917Z,4.2
2017-11-12T00:46:17.586Z,6.7
2017-11-12T00:48:18.260Z,6.4
2017-11-12T00:50:17.929Z,5.3
2017-11-12T00:52:17.609Z,4.5
2017-11-12T00:54:18.289Z,8
2017-11-12T00:56:20.928Z,7
2017-11-12T00:58:18.613Z,6.1
2017-11-12T01:00:18.290Z,4.9
2017-11-12T01:02:17.969Z,4.4
2017-11-12T01:04:17.650Z,6.5
2017-11-12T01:06:17.337Z,4.1
2017-11-12T01:08:17.992Z,6.3
2017-11-12T01:10:17.672Z,3.9
2017-11-12T01:12:18.353Z,7.8
2017-11-12T01:14:18.024Z,4
2017-11-12T01:16:17.700Z,9.7
2017-11-12T01:18:18.365Z,6.8
2017-11-12T01:20:18.020Z,4.9
2017-11-12T01:22:17.695Z,5.6
2017-11-12T01:24:18.358Z,3.6
2017-11-12T01:26:17.030Z,9
2017-11-12T01:28:17.678Z,8.2
2017-11-12T01:30:18.336Z,3.2
2017-11-12T01:32:17.988Z,3.4
2017-11-12T01:34:17.661Z,5.1
2017-11-12T01:36:17.335Z,5.5
2017-11-12T01:38:18.012Z,2.9
2017-11-12T01:40:17.680Z,4.4
2017-11-12T01:42:18.320Z,5
2017-11-12T01:44:17.971Z,4.7
2017-11-12T01:46:17.664Z,5.5
2017-11-12T01:48:18.322Z,5.4
2017-11-12T01:50:18.011Z,6.1
2017-11-12T01:52:17.678Z,3.9
2017-11-12T01:54:18.354Z,3.7
2017-11-12T01:56:17.038Z,10
2017-11-12T01:58:17.698Z,7.1
2017-11-12T02:00:18.370Z,5.7
2017-11-12T02:02:18.047Z,5.2
2017-11-12T02:04:17.721Z,6.5
2017-11-12T02:06:17.394Z,4
2017-11-12T02:08:18.056Z,6.4
2017-11-12T02:10:17.668Z,3.4
2017-11-12T02:12:18.354Z,7.8
2017-11-12T02:14:18.035Z,7.7
2017-11-12T02:16:17.720Z,6.5
2017-11-12T02:18:18.375Z,4.7
2017-11-12T02:20:18.056Z,6.6
2017-11-12T02:22:17.712Z,6.7
2017-11-12T02:24:18.376Z,5.8
2017-11-12T02:26:17.033Z,6.3
2017-11-12T02:28:17.689Z,5.7
2017-11-12T02:30:18.359Z,3.5
2017-11-12T02:32:18.001Z,12.5
2017-11-12T02:34:17.697Z,4.6
2017-11-12T02:36:17.342Z,5.5
2017-11-12T02:38:18.014Z,8
2017-11-12T02:40:17.622Z,8.7
2017-11-12T02:42:18.318Z,8.2
2017-11-12T02:44:17.991Z,6
2017-11-12T02:46:17.672Z,7.5
2017-11-12T02:48:18.346Z,6.6
2017-11-12T02:50:17.980Z,3.9
2017-11-12T02:52:17.681Z,8.8
2017-11-12T02:54:18.341Z,5.4
2017-11-12T02:56:20.971Z,5
2017-11-12T02:58:17.654Z,5.1
2017-11-12T03:00:18.345Z,4.6
2017-11-12T03:04:17.675Z,6
2017-11-12T03:06:21.316Z,12.6
2017-11-12T03:08:18.008Z,5
2017-11-12T03:10:17.651Z,5.4
2017-11-12T03:12:18.315Z,5.6
2017-11-12T03:14:17.973Z,4.9
2017-11-12T03:16:17.654Z,11
2017-11-12T03:18:18.283Z,6.1
2017-11-12T03:20:17.936Z,7.6
2017-11-12T03:22:17.583Z,5.6
2017-11-12T03:24:18.230Z,6.4
2017-11-12T03:26:20.868Z,6.6
2017-11-12T03:28:18.522Z,6.9
2017-11-12T03:30:18.177Z,4.6
2017-11-12T03:32:17.851Z,11
2017-11-12T03:34:18.492Z,9.1
2017-11-12T03:36:21.153Z,7.3
2017-11-12T03:38:17.804Z,11.8
2017-11-12T03:40:17.436Z,5.6
2017-11-12T03:42:18.105Z,6.2
2017-11-12T03:44:17.760Z,5.6
2017-11-12T03:46:18.392Z,9.1
2017-11-12T03:48:18.056Z,6.9
2017-11-12T03:52:17.327Z,8.4
2017-11-12T03:54:17.964Z,9.9
2017-11-12T03:56:17.650Z,6.7
2017-11-12T03:58:18.277Z,5.8
2017-11-12T04:00:17.962Z,6.8
2017-11-12T04:02:17.596Z,9
2017-11-12T04:04:18.252Z,10.2
2017-11-12T04:06:16.911Z,8.6
2017-11-12T04:08:18.554Z,8.1
2017-11-12T04:10:17.197Z,6.9
2017-11-12T04:12:17.846Z,11.6
2017-11-12T04:14:18.490Z,4.9
2017-11-12T04:16:21.140Z,7.5
2017-11-12T04:18:17.787Z,9.7
2017-11-12T04:20:18.440Z,10.9
2017-11-12T04:22:18.090Z,6.6
2017-11-12T04:24:17.749Z,9.9
2017-11-12T04:26:17.406Z,10.9
2017-11-12T04:28:18.051Z,12
2017-11-12T04:30:17.717Z,8
2017-11-12T04:32:18.362Z,8.8
2017-11-12T04:34:18.017Z,8.5
2017-11-12T04:36:21.665Z,10.9
2017-11-12T04:38:18.341Z,6.6
2017-11-12T04:40:17.981Z,11.7
2017-11-12T04:42:17.645Z,12.3
2017-11-12T04:44:18.307Z,8.8
2017-11-12T04:46:16.972Z,9.9
2017-11-12T04:48:17.596Z,9.6
2017-11-12T04:50:18.238Z,8.9
2017-11-12T04:52:17.902Z,8.9
2017-11-12T04:54:18.530Z,10.4
2017-11-12T04:56:18.172Z,9
2017-11-12T04:58:17.817Z,11.2
2017-11-12T05:00:18.458Z,7.5
2017-11-12T05:02:18.105Z,10
2017-11-12T05:04:17.757Z,7.5
2017-11-12T05:06:18.383Z,7.9
2017-11-12T05:08:18.037Z,7.6
2017-11-12T05:10:17.685Z,8.2
2017-11-12T05:12:18.345Z,8
2017-11-12T05:14:17.984Z,5.9
2017-11-12T05:16:17.619Z,7.8
2017-11-12T05:18:18.258Z,8.2
2017-11-12T05:20:17.903Z,10.7
2017-11-12T05:22:18.565Z,9.8
2017-11-12T05:24:18.195Z,7.6
2017-11-12T05:26:17.823Z,8.7
2017-11-12T05:28:18.481Z,10.8
2017-11-12T05:30:18.132Z,8.1
2017-11-12T05:32:17.784Z,6.8
2017-11-12T05:34:18.413Z,10.7
2017-11-12T05:36:21.053Z,8.2
2017-11-12T05:38:17.718Z,9.7
2017-11-12T05:40:17.385Z,9.1
2017-11-12T05:42:18.038Z,6.5
2017-11-12T05:44:17.706Z,6.1
2017-11-12T05:46:17.354Z,8.5
2017-11-12T05:48:18.007Z,10
2017-11-12T05:50:17.666Z,7.8
2017-11-12T05:52:18.302Z,10.3
2017-11-12T05:54:17.970Z,9.5
2017-11-12T05:56:17.634Z,7.9
2017-11-12T05:58:18.297Z,6.4
2017-11-12T06:00:17.928Z,9.9
2017-11-12T06:02:18.578Z,8.5
2017-11-12T06:04:18.240Z,11.8
2017-11-12T06:06:16.902Z,7
2017-11-12T06:08:18.569Z,7.9
2017-11-12T06:10:17.206Z,7.9
2017-11-12T06:12:17.858Z,11.5
2017-11-12T06:14:18.507Z,13.9
2017-11-12T06:16:21.142Z,11.5
2017-11-12T06:18:17.808Z,11.6
2017-11-12T06:20:18.470Z,7.9
2017-11-12T06:22:18.130Z,11.2
2017-11-12T06:24:17.778Z,9.9
2017-11-12T06:26:17.429Z,6.5
2017-11-12T06:28:18.075Z,8.3
2017-11-12T06:30:17.719Z,7.6
2017-11-12T06:32:18.361Z,5.1
2017-11-12T06:34:18.027Z,5.1
2017-11-12T06:36:21.690Z,11.3
2017-11-12T06:38:18.364Z,7.8
2017-11-12T06:40:17.999Z,6.8
2017-11-12T06:42:17.673Z,4.7
2017-11-12T06:44:18.323Z,9.6
2017-11-12T06:46:17.952Z,8.3
2017-11-12T06:48:17.604Z,5.9
2017-11-12T06:50:18.256Z,8.3
2017-11-12T06:52:17.909Z,10.1
2017-11-12T06:54:18.568Z,4.2
2017-11-12T06:56:17.231Z,5.9
2017-11-12T06:58:17.868Z,5.8
2017-11-12T07:00:18.534Z,7.4
2017-11-12T07:02:18.172Z,4.9
2017-11-12T07:04:17.826Z,9.6
2017-11-12T07:06:21.471Z,8.2
2017-11-12T07:08:18.114Z,12.2
2017-11-12T07:10:17.764Z,7.9
2017-11-12T07:12:18.428Z,12.1
2017-11-12T07:14:18.056Z,9.2
2017-11-12T07:16:17.723Z,8.1
2017-11-12T07:18:18.371Z,6.3
2017-11-12T07:20:18.048Z,7.8
2017-11-12T07:22:17.712Z,6.9
2017-11-12T07:24:18.357Z,10.2
2017-11-12T07:26:17.055Z,9.9
2017-11-12T07:28:17.687Z,7
2017-11-12T07:30:18.332Z,7.1
2017-11-12T07:32:17.996Z,6.5
2017-11-12T07:34:17.652Z,4.9
2017-11-12T07:36:17.339Z,6.2
2017-11-12T07:38:17.993Z,7.4
2017-11-12T07:40:17.668Z,6.3
2017-11-12T07:42:18.352Z,4.5
2017-11-12T07:44:18.035Z,4.7
2017-11-12T07:46:17.699Z,10
2017-11-12T07:48:18.350Z,4.7
2017-11-12T07:50:18.028Z,5.5
2017-11-12T07:52:17.696Z,5.9
2017-11-12T07:54:18.366Z,5.4
2017-11-12T07:56:17.050Z,6.3
2017-11-12T07:58:17.684Z,6
2017-11-12T08:00:18.349Z,6.9
2017-11-12T08:02:18.021Z,7.9
2017-11-12T08:04:17.697Z,6.1
2017-11-12T08:06:21.351Z,4.5
2017-11-12T08:08:18.034Z,6.7
2017-11-12T08:10:17.689Z,7.9
2017-11-12T08:12:18.363Z,16.8
2017-11-12T08:14:18.032Z,2.2
2017-11-12T08:16:17.717Z,8.2
2017-11-12T08:18:18.382Z,8.6
2017-11-12T08:20:18.040Z,5.2
2017-11-12T08:22:17.719Z,5
2017-11-12T08:24:18.403Z,6.4
2017-11-12T08:26:17.069Z,5.7
2017-11-12T08:28:17.742Z,4.5
2017-11-12T08:30:18.419Z,5.5
2017-11-12T08:32:18.115Z,8.2
2017-11-12T08:34:17.799Z,4.2
2017-11-12T08:36:21.443Z,6.8
2017-11-12T08:38:18.112Z,7.6
2017-11-12T08:40:17.780Z,7.4
2017-11-12T08:42:18.466Z,13.2
2017-11-12T08:44:18.155Z,7.7
2017-11-12T08:46:20.806Z,5.7
2017-11-12T08:48:18.512Z,10.2
2017-11-12T08:50:18.184Z,4.8
2017-11-12T08:52:17.862Z,6.6
2017-11-12T08:54:18.537Z,8.5
2017-11-12T08:56:17.230Z,5.8
2017-11-12T08:58:17.920Z,9
2017-11-12T09:00:18.611Z,7.1
2017-11-12T09:02:18.301Z,6.8
2017-11-12T09:04:17.999Z,8.1
2017-11-12T09:06:17.690Z,4
2017-11-12T09:08:18.379Z,6.9
2017-11-12T09:10:18.102Z,4.7
2017-11-12T09:12:17.782Z,4.4
2017-11-12T09:14:18.481Z,4
2017-11-12T09:16:17.188Z,5.7
2017-11-12T09:18:17.875Z,5.7
2017-11-12T09:20:18.568Z,6.8
2017-11-12T09:22:18.273Z,6.1
2017-11-12T09:24:17.982Z,5
2017-11-12T09:26:21.638Z,1.8
2017-11-12T09:28:18.352Z,5.4
2017-11-12T09:30:18.066Z,12.1
2017-11-12T09:32:17.779Z,5
2017-11-12T09:34:18.450Z,4.1
2017-11-12T09:36:17.140Z,8
2017-11-12T09:38:17.833Z,11
2017-11-12T09:40:17.542Z,3.6
2017-11-12T09:42:18.258Z,5.7
2017-11-12T09:44:17.934Z,5.9
2017-11-12T09:46:17.631Z,5.9
2017-11-12T09:48:18.355Z,6
2017-11-12T09:50:18.051Z,8.4
2017-11-12T09:52:17.759Z,4.5
2017-11-12T09:54:18.459Z,6
2017-11-12T09:56:17.182Z,9.8
2017-11-12T09:58:17.891Z,6.2
2017-11-12T10:00:18.606Z,3.6
2017-11-12T10:02:18.323Z,5.1
2017-11-12T10:04:18.069Z,3
2017-11-12T10:06:17.763Z,6.2
2017-11-12T10:08:18.476Z,13.7
2017-11-12T10:10:17.191Z,6
2017-11-12T10:12:17.928Z,4.8
2017-11-12T10:14:18.623Z,3.2
2017-11-12T10:16:17.331Z,4.9
2017-11-12T10:18:18.036Z,7.9
2017-11-12T10:20:17.739Z,2.8
2017-11-12T10:22:18.470Z,2.6
2017-11-12T10:24:18.162Z,7.1
2017-11-12T10:26:17.896Z,5.3
2017-11-12T10:28:18.594Z,4
2017-11-12T10:30:18.310Z,3.1
2017-11-12T10:32:18.023Z,3
2017-11-12T10:34:17.758Z,3.7
2017-11-12T10:36:17.468Z,3.9
2017-11-12T10:38:18.184Z,6.9
2017-11-12T10:40:17.922Z,3.3
2017-11-12T10:42:18.619Z,4.7
2017-11-12T10:44:18.360Z,5.1
2017-11-12T10:46:17.101Z,6.7
2017-11-12T10:48:17.786Z,7.3
2017-11-12T10:50:18.504Z,13.1
2017-11-12T10:52:18.242Z,1.6
2017-11-12T10:54:17.964Z,8.4
2017-11-12T10:56:17.680Z,5
2017-11-12T10:58:18.389Z,3.4
2017-11-12T11:00:18.103Z,5.2
2017-11-12T11:02:17.840Z,5.2
2017-11-12T11:04:18.557Z,7.6
2017-11-12T11:06:17.293Z,7.4
2017-11-12T11:08:18.019Z,5
2017-11-12T11:10:17.761Z,3.5
2017-11-12T11:12:18.467Z,6.7
2017-11-12T11:14:18.197Z,8.7
2017-11-12T11:16:17.943Z,2
2017-11-12T11:18:17.681Z,3.3
2017-11-12T11:20:18.425Z,3.4
2017-11-12T11:22:18.165Z,8.5
2017-11-12T11:24:17.912Z,3.8
2017-11-12T11:26:17.660Z,5
2017-11-12T11:28:18.380Z,9.6
2017-11-12T11:30:18.120Z,3.2
2017-11-12T11:32:17.848Z,4.8
2017-11-12T11:34:18.570Z,5.3
2017-11-12T11:36:17.327Z,4.4
2017-11-12T11:38:18.050Z,6.1
2017-11-12T11:40:17.783Z,3.1
2017-11-12T11:42:18.500Z,5.6
2017-11-12T11:44:18.243Z,9.9
2017-11-12T11:46:16.988Z,3.9
2017-11-12T11:48:17.721Z,5.1
2017-11-12T11:50:18.464Z,3.6
2017-11-12T11:56:17.994Z,3.6
2017-11-12T11:58:17.399Z,3.7
2017-11-12T12:00:18.163Z,2.1
2017-11-12T12:02:17.921Z,3.3
2017-11-12T12:04:18.637Z,3.4
2017-11-12T12:06:17.384Z,4.8
2017-11-12T12:08:18.161Z,8.3
2017-11-12T12:10:17.874Z,3.7
2017-11-12T12:12:18.664Z,3.5
2017-11-12T12:14:18.402Z,7.6
2017-11-12T12:16:17.103Z,5.7
2017-11-12T12:18:17.849Z,4.4
2017-11-12T12:20:18.610Z,3.9
2017-11-12T12:22:21.337Z,4.5
2017-11-12T12:24:21.093Z,3.5
2017-11-12T12:26:17.896Z,7.9
2017-11-12T12:28:18.677Z,6
2017-11-12T12:30:18.421Z,6.8
2017-11-12T12:32:18.164Z,6.2
2017-11-12T12:34:17.909Z,7.6
2017-11-12T12:36:17.650Z,3
2017-11-12T12:38:18.432Z,8.5
2017-11-12T12:40:18.177Z,3.4
2017-11-12T12:42:17.923Z,5.7
2017-11-12T12:44:18.731Z,4.5
2017-11-12T12:46:17.402Z,4.2
2017-11-12T12:48:21.138Z,4.1
2017-11-12T12:50:17.897Z,4.8
2017-11-12T12:52:21.622Z,12.3
2017-11-12T12:54:18.385Z,6.4
2017-11-12T12:56:18.145Z,6.5
2017-11-12T12:58:20.877Z,6.8
2017-11-12T13:00:18.666Z,6.1
2017-11-12T13:02:18.359Z,6.2
2017-11-12T13:04:18.128Z,4
2017-11-12T13:06:17.863Z,4.9
2017-11-12T13:08:18.616Z,7.4
2017-11-12T13:10:17.332Z,10.7
2017-11-12T13:12:18.113Z,7.4
2017-11-12T13:14:17.820Z,9.9
2017-11-12T13:16:17.580Z,5.3
2017-11-12T13:18:18.337Z,10.7
2017-11-12T13:20:18.019Z,7.4
2017-11-12T13:22:17.756Z,9.5
2017-11-12T13:24:21.539Z,9.1
2017-11-12T13:26:17.251Z,12.2
2017-11-12T13:28:17.996Z,5.7
2017-11-12T13:30:17.759Z,3
2017-11-12T13:32:18.478Z,6.3
2017-11-12T13:34:18.240Z,5.5
2017-11-12T13:36:16.991Z,7.3
2017-11-12T13:38:17.731Z,11.8
2017-11-12T13:40:17.493Z,8.7
2017-11-12T13:42:18.224Z,4
2017-11-12T13:44:20.979Z,10.4
2017-11-12T13:46:17.779Z,5.5
2017-11-12T13:48:18.478Z,4.1
2017-11-12T13:50:18.248Z,9.7
2017-11-12T13:52:18.018Z,9.4
2017-11-12T13:54:17.730Z,5.5
2017-11-12T13:56:17.500Z,5.3
2017-11-12T13:58:21.270Z,9.7
2017-11-12T14:00:17.999Z,6.4
2017-11-12T14:02:17.784Z,9.5
2017-11-12T14:04:18.532Z,6.6
2017-11-12T14:06:17.272Z,5.4
2017-11-12T14:08:18.000Z,11.5
2017-11-12T14:10:17.739Z,9.7
2017-11-12T14:12:21.478Z,8.6
2017-11-12T14:14:18.268Z,5.3
2017-11-12T14:16:17.031Z,4.5
2017-11-12T14:18:17.778Z,9
2017-11-12T14:20:18.515Z,10.1
2017-11-12T14:22:18.282Z,4.4
2017-11-12T14:24:18.012Z,8.8
2017-11-12T14:26:17.735Z,10.8
2017-11-12T14:28:18.506Z,12.6
2017-11-12T14:30:18.218Z,7.5
2017-11-12T14:32:17.952Z,9.2
2017-11-12T14:34:17.730Z,8.2
2017-11-12T14:36:17.434Z,7.6
2017-11-12T14:38:18.158Z,3.7
2017-11-12T14:40:17.901Z,8.3
2017-11-12T14:42:18.651Z,9.6
2017-11-12T14:44:18.387Z,8.6
2017-11-12T14:46:17.182Z,6
2017-11-12T14:48:17.891Z,8.1
2017-11-12T14:50:18.621Z,5.5
2017-11-12T14:52:18.385Z,4.1
2017-11-12T14:54:18.109Z,5.6
2017-11-12T14:56:17.857Z,4.7
2017-11-12T14:58:21.614Z,8.1
2017-11-12T15:00:18.339Z,6
2017-11-12T15:02:18.088Z,15.5
2017-11-12T15:04:17.846Z,14.7
2017-11-12T15:06:17.570Z,10.6
2017-11-12T15:08:18.286Z,18.7
2017-11-12T15:10:18.018Z,15.2
2017-11-12T15:12:17.748Z,13.5
2017-11-12T15:14:18.485Z,21.6
2017-11-12T15:16:17.259Z,15.4
2017-11-12T15:18:17.952Z,8.6
2017-11-12T15:20:17.708Z,6.8
2017-11-12T15:22:18.433Z,9.5
2017-11-12T15:24:18.132Z,16.4
2017-11-12T15:26:17.865Z,11.1
2017-11-12T15:28:21.630Z,13.8
2017-11-12T15:30:18.333Z,7.7
2017-11-12T15:32:18.054Z,13
2017-11-12T15:34:17.806Z,12.6
2017-11-12T15:36:17.538Z,11.4
2017-11-12T15:38:18.250Z,9.6
2017-11-12T15:40:17.970Z,6.1
2017-11-12T15:42:17.694Z,6.8
2017-11-12T15:46:18.182Z,11.4
2017-11-12T15:48:17.870Z,8.7
2017-11-12T15:50:18.596Z,6.2
2017-11-12T15:52:18.359Z,4.9
2017-11-12T15:54:18.058Z,8.8
2017-11-12T15:56:17.783Z,7.5
2017-11-12T15:58:18.543Z,8
2017-11-12T16:00:18.249Z,7.5
2017-11-12T16:02:17.989Z,11.9
2017-11-12T16:04:17.754Z,15.1
2017-11-12T16:06:17.454Z,10
2017-11-12T16:08:18.220Z,8.8
2017-11-12T16:10:17.927Z,5.9
2017-11-12T16:12:18.668Z,6.6
2017-11-12T16:14:21.376Z,11.6
2017-11-12T16:16:17.163Z,16
2017-11-12T16:18:17.850Z,8
2017-11-12T16:20:18.595Z,9.6
2017-11-12T16:22:18.335Z,9.2
2017-11-12T16:24:18.069Z,13.7
2017-11-12T16:26:17.755Z,17.9
2017-11-12T16:28:18.557Z,16.6
2017-11-12T16:30:18.252Z,15.7
2017-11-12T16:32:17.961Z,7.4
2017-11-12T16:34:17.715Z,7
2017-11-12T16:36:17.425Z,3.9
2017-11-12T16:38:18.160Z,7.7
2017-11-12T16:40:17.898Z,9.9
2017-11-12T16:42:18.623Z,6.7
2017-11-12T16:44:21.349Z,10.1
2017-11-12T16:46:18.101Z,9.5
2017-11-12T16:48:17.853Z,12.4
2017-11-12T16:50:18.592Z,12.9
2017-11-12T16:52:18.305Z,13.1
2017-11-12T16:54:18.027Z,12.2
2017-11-12T16:56:17.773Z,7.7
2017-11-12T16:58:18.459Z,11.1
2017-11-12T17:00:18.194Z,15.3
2017-11-12T17:02:17.943Z,13.7
2017-11-12T17:04:17.642Z,9.7
2017-11-12T17:06:17.364Z,9.6
2017-11-12T17:08:18.140Z,8.5
2017-11-12T17:10:17.811Z,11.6
2017-11-12T17:12:18.589Z,11.5
2017-11-12T17:14:18.310Z,11.4
2017-11-12T17:16:17.010Z,11.2
2017-11-12T17:18:17.728Z,13.3
2017-11-12T17:20:18.435Z,9.2
2017-11-12T17:22:18.164Z,9.5
2017-11-12T17:24:17.872Z,13.8
2017-11-12T17:26:17.633Z,13
2017-11-12T17:28:18.346Z,11.8
2017-11-12T17:30:18.028Z,11
2017-11-12T17:32:17.787Z,6.7
2017-11-12T17:34:18.471Z,9.5
2017-11-12T17:36:17.186Z,9
2017-11-12T17:38:17.919Z,9.6
2017-11-12T17:40:17.622Z,16.2
2017-11-12T17:42:18.336Z,10.4
2017-11-12T17:44:18.087Z,8.8
2017-11-12T17:46:17.792Z,11.7
2017-11-12T17:48:18.492Z,14.4
2017-11-12T17:50:18.210Z,8.9
2017-11-12T17:52:17.977Z,11.8
2017-11-12T17:54:17.660Z,7
2017-11-12T17:56:17.356Z,10.7
2017-11-12T17:58:18.079Z,10.8
2017-11-12T18:00:17.848Z,10.5
2017-11-12T18:02:18.539Z,12
2017-11-12T18:04:18.239Z,10
2017-11-12T18:06:17.005Z,17
2017-11-12T18:08:17.696Z,9.4
2017-11-12T18:10:17.427Z,11
2017-11-12T18:12:18.183Z,11
2017-11-12T18:14:17.882Z,17.7
2017-11-12T18:16:17.600Z,14.6
2017-11-12T18:18:18.353Z,19.2
2017-11-12T18:20:18.053Z,17.6
2017-11-12T18:22:17.777Z,24.9
2017-11-12T18:24:18.498Z,22.8
2017-11-12T18:26:17.204Z,23.8
2017-11-12T18:28:20.920Z,26
2017-11-12T18:30:18.660Z,25.4
2017-11-12T18:32:18.336Z,25.9
2017-11-12T18:34:18.054Z,25.4
2017-11-12T18:36:17.816Z,22
2017-11-12T18:38:18.483Z,21.4
2017-11-12T18:40:17.211Z,24.6
2017-11-12T18:42:17.902Z,27.5
2017-11-12T18:44:18.621Z,35.7
2017-11-12T18:46:17.309Z,17.5
2017-11-12T18:48:18.064Z,18.1
2017-11-12T18:50:17.750Z,21.8
2017-11-12T18:52:18.455Z,22.7
2017-11-12T18:54:18.204Z,16.3
2017-11-12T18:56:16.942Z,20.9
2017-11-12T18:58:17.598Z,30.8
2017-11-12T19:00:18.355Z,23
2017-11-12T19:02:18.104Z,26.2
2017-11-12T19:04:17.797Z,21.5
2017-11-12T19:06:17.529Z,22.6
2017-11-12T19:08:18.245Z,18.5
2017-11-12T19:10:18.006Z,17.5
2017-11-12T19:12:17.693Z,20.7
2017-11-12T19:14:21.389Z,17.6
2017-11-12T19:16:17.174Z,18.2
2017-11-12T19:18:17.900Z,22.8
2017-11-12T19:20:18.544Z,19.3
2017-11-12T19:22:21.299Z,13.8
2017-11-12T19:24:18.020Z,16.2
2017-11-12T19:26:17.701Z,23.3
2017-11-12T19:28:18.495Z,19
2017-11-12T19:30:18.163Z,21.4
2017-11-12T19:32:17.882Z,18
2017-11-12T19:34:18.614Z,22.5
2017-11-12T19:36:17.278Z,31.9
2017-11-12T19:38:18.013Z,22.7
2017-11-12T19:40:17.767Z,17.6
2017-11-12T19:42:18.490Z,16.6
2017-11-12T19:44:18.197Z,18.5
2017-11-12T19:46:16.981Z,28.2
2017-11-12T19:48:17.667Z,20.7
2017-11-12T19:50:18.394Z,16.5
2017-11-12T19:52:18.090Z,19.4
2017-11-12T19:54:17.813Z,21
2017-11-12T19:56:17.533Z,21.6
2017-11-12T19:58:18.288Z,26.3
2017-11-12T20:00:17.976Z,15
2017-11-12T20:02:17.702Z,19.9
2017-11-12T20:04:18.448Z,14.8
2017-11-12T20:06:18.149Z,21.8
2017-11-12T20:08:17.892Z,20
2017-11-12T20:10:17.591Z,21.7
2017-11-12T20:12:18.304Z,17
2017-11-12T20:14:18.047Z,19.6
2017-11-12T20:16:17.758Z,20.8
2017-11-12T20:18:18.466Z,22.7
2017-11-12T20:20:18.200Z,15.3
2017-11-12T20:22:17.914Z,18.1
2017-11-12T20:24:18.591Z,15.6
2017-11-12T20:26:17.291Z,14.4
2017-11-12T20:28:18.033Z,12.9
2017-11-12T20:30:17.724Z,17.4
2017-11-12T20:32:18.436Z,25.1
2017-11-12T20:34:18.198Z,19.6
2017-11-12T20:36:17.896Z,18.5
2017-11-12T20:38:18.592Z,15.6
2017-11-12T20:40:17.320Z,14.1
2017-11-12T20:42:18.030Z,13.3
2017-11-12T20:44:17.750Z,9.6
2017-11-12T20:46:17.477Z,10.6
2017-11-12T20:48:18.179Z,10.8
2017-11-12T20:50:17.933Z,13.9
2017-11-12T20:52:17.643Z,20.9
2017-11-12T20:54:18.332Z,11.2
2017-11-12T20:56:17.081Z,18.4
2017-11-12T20:58:17.769Z,15
2017-11-12T21:00:18.498Z,15.8
2017-11-12T21:02:18.246Z,13.7
2017-11-12T21:04:17.932Z,12.6
2017-11-12T21:06:17.666Z,17
2017-11-12T21:08:18.384Z,12
2017-11-12T21:10:18.072Z,16
2017-11-12T21:12:17.783Z,15.2
2017-11-12T21:14:18.513Z,13
2017-11-12T21:16:17.194Z,16.8
2017-11-12T21:18:17.906Z,18
2017-11-12T21:20:18.609Z,18
2017-11-12T21:22:18.328Z,26.4
2017-11-12T21:24:18.090Z,12.4
2017-11-12T21:26:17.787Z,12.3
2017-11-12T21:28:18.472Z,13
2017-11-12T21:30:18.205Z,14.3
2017-11-12T21:32:17.899Z,12.5
2017-11-12T21:34:18.610Z,9.1
2017-11-12T21:36:17.345Z,12.3
2017-11-12T21:38:18.022Z,12.5
2017-11-12T21:40:17.740Z,14.1
2017-11-12T21:42:18.493Z,17.5
2017-11-12T21:44:18.212Z,19.8
2017-11-12T21:46:16.918Z,14.6
2017-11-12T21:48:18.657Z,11.6
2017-11-12T21:50:18.348Z,15.2
2017-11-12T21:52:18.064Z,13.9
2017-11-12T21:54:17.815Z,11.7
2017-11-12T21:56:17.495Z,18.6
2017-11-12T21:58:18.216Z,14.2
2017-11-12T22:00:17.910Z,9.7
2017-11-12T22:02:18.628Z,10.4
2017-11-12T22:04:21.335Z,13.7
2017-11-12T22:06:17.084Z,18.6
2017-11-12T22:08:17.792Z,7.9
2017-11-12T22:10:17.548Z,12.2
2017-11-12T22:12:18.238Z,14.8
2017-11-12T22:14:17.963Z,16.2
2017-11-12T22:16:17.710Z,12.5
2017-11-12T22:18:18.386Z,14.5
2017-11-12T22:20:18.109Z,13.9
2017-11-12T22:22:17.865Z,12.1
2017-11-12T22:24:18.532Z,15.6
2017-11-12T22:26:17.283Z,13.8
2017-11-12T22:28:17.985Z,13
2017-11-12T22:30:17.666Z,9.9
2017-11-12T22:32:18.386Z,14.2
2017-11-12T22:34:18.113Z,15
2017-11-12T22:36:17.805Z,17.8
2017-11-12T22:38:18.505Z,11.3
2017-11-12T22:40:17.240Z,12
2017-11-12T22:42:17.961Z,11.9
2017-11-12T22:44:17.632Z,10.8
2017-11-12T22:46:17.347Z,11.7
2017-11-12T22:48:18.059Z,10.9
2017-11-12T22:50:17.745Z,8.4
2017-11-12T22:52:18.441Z,7.4
2017-11-12T22:54:18.168Z,12.7
2017-11-12T22:56:17.906Z,9
2017-11-12T22:58:18.587Z,11.5
2017-11-12T23:00:18.265Z,9.6
2017-11-12T23:02:17.999Z,8.7
2017-11-12T23:04:17.678Z,10.6
2017-11-12T23:06:17.355Z,12.2
2017-11-12T23:08:18.077Z,12.4
2017-11-12T23:10:17.751Z,8.2
2017-11-12T23:12:18.457Z,8.3
2017-11-12T23:14:18.189Z,4.9
2017-11-12T23:16:16.876Z,6.2
2017-11-12T23:18:17.546Z,7.8
2017-11-12T23:20:18.240Z,5
2017-11-12T23:22:17.927Z,4.4
2017-11-12T23:24:18.612Z,11.3
2017-11-12T23:26:17.301Z,7.7
2017-11-12T23:28:17.983Z,4.5
2017-11-12T23:30:17.719Z,4.9
2017-11-12T23:32:18.396Z,6.2
2017-11-12T23:34:18.095Z,4.5
2017-11-12T23:36:17.830Z,3.9
2017-11-12T23:38:18.515Z,4.7
2017-11-12T23:40:17.216Z,6.7
2017-11-12T23:42:17.949Z,4.1
2017-11-12T23:44:17.625Z,3.6
2017-11-12T23:46:17.333Z,4.9
2017-11-12T23:48:18.072Z,6.3
2017-11-12T23:50:17.744Z,3.6
2017-11-12T23:52:18.455Z,3.5
2017-11-12T23:54:18.185Z,2.9
2017-11-12T23:56:17.861Z,3.4
2017-11-12T23:58:18.561Z,1.9
